createdAt,value
2023-03-18T00:00:35.304Z,232.07
2023-03-18T00:03:43.232Z,224.23
2023-03-18T00:06:49.917Z,234.41
2023-03-18T00:09:56.817Z,236.09
2023-03-18T00:13:04.683Z,245.91
2023-03-18T00:16:15.340Z,236.11
2023-03-18T00:19:21.386Z,249.32
2023-03-18T00:22:28.618Z,261.61
2023-03-18T00:25:34.560Z,274.57
2023-03-18T00:28:46.647Z,272.55
2023-03-18T00:31:56.438Z,253.53
2023-03-18T00:35:06.358Z,240.03
2023-03-18T00:38:20.963Z,238.91
2023-03-18T00:41:29.404Z,237.18
2023-03-18T00:44:43.600Z,230.30
2023-03-18T00:47:53.952Z,244.10
2023-03-18T00:51:00.854Z,248.85
2023-03-18T00:54:19.932Z,253.35
2023-03-18T00:57:27.613Z,245.77
2023-03-18T01:00:35.848Z,246.41
2023-03-18T01:03:47.921Z,247.67
2023-03-18T01:06:54.635Z,257.24
2023-03-18T01:10:00.521Z,264.40
2023-03-18T01:13:07.249Z,272.33
2023-03-18T01:16:18.080Z,275.08
2023-03-18T01:19:29.449Z,281.25
2023-03-18T01:22:36.246Z,289.30
2023-03-18T01:25:43.577Z,294.67
2023-03-18T01:28:51.053Z,296.41
2023-03-18T01:32:10.918Z,302.51
2023-03-18T01:35:20.507Z,298.87
2023-03-18T01:38:34.845Z,302.29
2023-03-18T01:42:00.121Z,296.56
2023-03-18T01:45:24.928Z,294.14
2023-03-18T01:48:42.751Z,280.16
2023-03-18T01:52:00.633Z,276.14
2023-03-18T01:55:12.876Z,278.76
2023-03-18T01:58:25.714Z,277.27
2023-03-18T02:01:38.361Z,265.21
2023-03-18T02:04:50.949Z,267.62
2023-03-18T02:08:06.941Z,266.43
2023-03-18T02:11:14.439Z,262.11
2023-03-18T02:14:26.878Z,262.24
2023-03-18T02:17:40.386Z,261.55
2023-03-18T02:21:17.045Z,258.48
2023-03-18T02:24:48.360Z,263.03
2023-03-18T02:28:11.689Z,256.51
2023-03-18T02:31:21.244Z,258.43
2023-03-18T02:34:29.638Z,267.61
2023-03-18T02:37:37.405Z,269.60
2023-03-18T02:40:46.173Z,275.98
2023-03-18T02:44:01.065Z,280.41
2023-03-18T02:47:23.803Z,277.03
2023-03-18T02:50:30.812Z,281.84
2023-03-18T02:54:04.201Z,281.24
2023-03-18T02:57:16.199Z,287.05
2023-03-18T03:00:28.471Z,293.53
2023-03-18T03:03:42.594Z,298.50
2023-03-18T03:06:51.687Z,303.64
2023-03-18T03:10:05.250Z,316.55
2023-03-18T03:13:13.710Z,316.39
2023-03-18T03:16:24.969Z,317.06
2023-03-18T03:19:31.122Z,322.24
2023-03-18T03:22:51.575Z,321.08
2023-03-18T03:26:04.076Z,330.05
2023-03-18T03:29:12.811Z,316.63
2023-03-18T03:32:24.899Z,307.05
2023-03-18T03:35:32.645Z,298.85
2023-03-18T03:38:38.839Z,293.80
2023-03-18T03:41:46.473Z,295.77
2023-03-18T03:44:55.140Z,280.69
2023-03-18T03:48:15.697Z,278.30
2023-03-18T03:51:24.126Z,273.82
2023-03-18T03:54:31.703Z,275.07
2023-03-18T03:57:40.008Z,265.43
2023-03-18T04:00:46.770Z,262.08
2023-03-18T04:03:58.168Z,268.18
2023-03-18T04:07:05.383Z,263.20
2023-03-18T04:10:15.179Z,250.15
2023-03-18T04:13:22.775Z,246.57
2023-03-18T04:16:29.541Z,246.68
2023-03-18T04:19:39.953Z,245.51
2023-03-18T04:22:47.070Z,239.44
2023-03-18T04:25:55.044Z,244.35
2023-03-18T04:29:01.202Z,239.47
2023-03-18T04:32:11.123Z,237.02
2023-03-18T04:35:21.712Z,235.36
2023-03-18T04:38:30.789Z,233.69
2023-03-18T04:41:37.692Z,236.12
2023-03-18T04:44:45.928Z,236.12
2023-03-18T04:47:53.079Z,234.43
2023-03-18T04:51:08.395Z,236.91
2023-03-18T04:54:15.396Z,236.17
2023-03-18T04:57:22.621Z,235.74
2023-03-18T05:00:35.445Z,237.14
2023-03-18T05:03:55.465Z,240.63
2023-03-18T05:07:07.384Z,242.42
2023-03-18T05:10:19.089Z,243.11
2023-03-18T05:13:25.489Z,244.91
2023-03-18T05:16:37.474Z,243.29
2023-03-18T05:19:44.259Z,244.56
2023-03-18T05:22:58.459Z,248.42
2023-03-18T05:26:20.857Z,240.31
2023-03-18T05:29:27.935Z,235.53
2023-03-18T05:32:43.653Z,228.71
2023-03-18T05:35:51.148Z,229.32
2023-03-18T05:39:03.503Z,223.78
2023-03-18T05:42:11.817Z,223.72
2023-03-18T05:45:22.557Z,220.39
2023-03-18T05:48:36.414Z,221.07
2023-03-18T05:51:44.998Z,224.41
2023-03-18T05:54:59.501Z,230.32
2023-03-18T05:58:10.385Z,227.93
2023-03-18T06:01:23.009Z,227.15
2023-03-18T06:04:29.507Z,227.29
2023-03-18T06:07:36.896Z,226.73
2023-03-18T06:11:00.761Z,222.98
2023-03-18T06:14:11.990Z,225.68
2023-03-18T06:17:18.317Z,226.96
2023-03-18T06:20:25.403Z,224.42
2023-03-18T06:23:31.936Z,230.00
2023-03-18T06:26:41.726Z,225.43
2023-03-18T06:29:48.206Z,242.81
2023-03-18T06:32:58.096Z,247.34
2023-03-18T06:36:10.832Z,280.33
2023-03-18T06:39:30.189Z,284.89
2023-03-18T06:42:44.855Z,291.55
2023-03-18T06:45:59.750Z,280.95
2023-03-18T06:49:22.679Z,278.80
2023-03-18T06:52:40.696Z,277.69
2023-03-18T06:56:00.364Z,279.14
2023-03-18T06:59:28.885Z,278.97
2023-03-18T07:02:39.439Z,284.93
2023-03-18T07:05:47.914Z,285.29
2023-03-18T07:08:55.340Z,286.27
2023-03-18T07:12:03.574Z,300.21
2023-03-18T07:15:14.945Z,299.82
2023-03-18T07:18:21.906Z,297.45
2023-03-18T07:21:28.204Z,288.66
2023-03-18T07:24:36.175Z,285.78
2023-03-18T07:27:42.492Z,275.42
2023-03-18T07:30:54.052Z,274.33
2023-03-18T07:34:00.804Z,268.95
2023-03-18T07:37:17.830Z,266.94
2023-03-18T07:40:26.421Z,266.95
2023-03-18T07:43:33.081Z,266.45
2023-03-18T07:46:41.693Z,261.50
2023-03-18T07:49:48.646Z,263.58
2023-03-18T07:52:55.190Z,255.63
2023-03-18T07:56:08.403Z,251.48
2023-03-18T07:59:16.107Z,242.73
2023-03-18T08:02:28.418Z,232.18
2023-03-18T08:05:34.981Z,235.17
2023-03-18T08:08:44.891Z,230.11
2023-03-18T08:11:51.063Z,233.04
2023-03-18T08:14:58.217Z,234.12
2023-03-18T08:18:27.398Z,241.19
2023-03-18T08:21:50.890Z,226.81
2023-03-18T08:24:58.508Z,220.77
2023-03-18T08:28:12.352Z,218.23
2023-03-18T08:31:18.493Z,212.28
2023-03-18T08:34:28.100Z,215.81
2023-03-18T08:37:34.083Z,217.77
2023-03-18T08:40:48.524Z,217.19
2023-03-18T08:43:57.519Z,205.90
2023-03-18T08:47:04.441Z,214.40
2023-03-18T08:50:17.362Z,196.69
2023-03-18T08:53:24.520Z,165.05
2023-03-18T08:56:32.769Z,170.51
2023-03-18T08:59:44.802Z,168.53
2023-03-18T09:02:51.193Z,165.44
2023-03-18T09:06:00.794Z,137.72
2023-03-18T09:09:09.854Z,132.53
2023-03-18T09:12:19.583Z,121.76
2023-03-18T09:15:25.775Z,123.70
2023-03-18T09:18:32.867Z,118.45
2023-03-18T09:21:41.689Z,106.97
2023-03-18T09:24:48.569Z,142.85
2023-03-18T09:27:55.344Z,137.37
2023-03-18T09:31:02.812Z,128.80
2023-03-18T09:34:08.709Z,126.19
2023-03-18T09:37:25.688Z,145.56
2023-03-18T09:40:44.124Z,140.01
2023-03-18T09:44:14.974Z,121.13
2023-03-18T09:47:54.349Z,117.80
2023-03-18T09:51:20.030Z,114.19
2023-03-18T09:54:41.415Z,105.47
2023-03-18T09:57:54.588Z,99.68
2023-03-18T10:01:07.461Z,92.37
2023-03-18T10:04:23.790Z,89.91
2023-03-18T10:07:40.409Z,84.97
2023-03-18T10:10:52.610Z,72.86
2023-03-18T10:14:21.360Z,62.77
2023-03-18T10:17:35.838Z,65.88
2023-03-18T10:21:08.221Z,71.12
2023-03-18T10:24:38.277Z,70.24
2023-03-18T10:28:06.937Z,67.68
2023-03-18T10:31:29.939Z,66.05
2023-03-18T10:34:49.319Z,77.55
2023-03-18T10:38:06.202Z,69.91
2023-03-18T10:41:30.375Z,75.19
2023-03-18T10:44:45.802Z,71.46
2023-03-18T10:48:06.322Z,64.87
2023-03-18T10:51:24.874Z,69.28
2023-03-18T10:54:41.147Z,70.56
2023-03-18T10:57:48.068Z,73.91
2023-03-18T11:00:56.547Z,65.51
2023-03-18T11:04:11.466Z,68.39
2023-03-18T11:07:26.192Z,69.38
2023-03-18T11:10:40.053Z,83.13
2023-03-18T11:13:50.876Z,83.80
2023-03-18T11:17:06.492Z,79.41
2023-03-18T11:20:25.637Z,79.54
2023-03-18T11:23:56.275Z,83.88
2023-03-18T11:27:02.557Z,89.42
2023-03-18T11:30:33.667Z,83.78
2023-03-18T11:33:42.797Z,84.17
2023-03-18T11:36:59.222Z,91.68
2023-03-18T11:40:26.570Z,91.44
2023-03-18T11:43:33.471Z,94.09
2023-03-18T11:46:48.736Z,101.43
2023-03-18T11:49:59.661Z,73.88
2023-03-18T11:53:26.472Z,78.81
2023-03-18T11:56:43.700Z,82.30
2023-03-18T12:00:17.829Z,77.93
2023-03-18T12:04:08.097Z,74.02
2023-03-18T12:07:52.477Z,62.67
2023-03-18T12:11:14.839Z,63.45
2023-03-18T12:14:36.527Z,58.64
2023-03-18T12:18:04.520Z,55.79
2023-03-18T12:21:45.727Z,56.95
2023-03-18T12:25:30.922Z,56.98
2023-03-18T12:28:56.512Z,83.02
2023-03-18T12:32:26.740Z,66.22
2023-03-18T12:35:53.664Z,67.37
2023-03-18T12:39:31.219Z,68.34
2023-03-18T12:43:03.945Z,68.12
2023-03-18T12:46:29.475Z,72.57
2023-03-18T12:49:41.952Z,72.52
2023-03-18T12:52:57.959Z,82.14
2023-03-18T12:56:27.839Z,74.58
2023-03-18T12:59:53.957Z,58.92
2023-03-18T13:03:09.012Z,58.94
2023-03-18T13:06:26.826Z,57.22
2023-03-18T13:09:43.918Z,55.85
2023-03-18T13:12:56.218Z,56.83
2023-03-18T13:16:09.290Z,55.29
2023-03-18T13:19:16.127Z,54.65
2023-03-18T13:23:00.687Z,57.79
2023-03-18T13:26:24.529Z,56.37
2023-03-18T13:29:46.197Z,58.00
2023-03-18T13:33:37.494Z,59.82
2023-03-18T13:37:30.896Z,63.18
2023-03-18T13:41:22.627Z,65.48
2023-03-18T13:44:47.736Z,71.50
2023-03-18T13:48:08.842Z,62.85
2023-03-18T13:51:43.679Z,63.05
2023-03-18T13:54:51.826Z,60.24
2023-03-18T13:58:11.860Z,62.03
2023-03-18T14:01:36.763Z,61.15
2023-03-18T14:04:53.738Z,64.28
2023-03-18T14:08:45.118Z,65.61
2023-03-18T14:11:54.631Z,66.23
2023-03-18T14:15:08.265Z,61.65
2023-03-18T14:18:28.865Z,58.54
2023-03-18T14:21:52.621Z,61.81
2023-03-18T14:25:23.819Z,58.05
2023-03-18T14:28:31.973Z,63.72
2023-03-18T14:31:59.454Z,65.69
2023-03-18T14:35:30.082Z,67.56
2023-03-18T14:38:51.956Z,72.98
2023-03-18T14:42:06.180Z,75.13
2023-03-18T14:45:24.733Z,74.42
2023-03-18T14:48:35.585Z,65.15
2023-03-18T14:51:41.940Z,58.21
2023-03-18T14:54:58.077Z,56.18
2023-03-18T14:58:07.383Z,49.45
2023-03-18T15:01:26.056Z,57.57
2023-03-18T15:04:32.206Z,50.20
2023-03-18T15:07:47.740Z,41.74
2023-03-18T15:11:05.817Z,41.77
2023-03-18T15:14:26.271Z,46.10
2023-03-18T15:17:32.492Z,47.18
2023-03-18T15:20:40.596Z,49.64
2023-03-18T15:23:54.694Z,53.35
2023-03-18T15:27:14.680Z,58.35
2023-03-18T15:30:36.369Z,56.74
2023-03-18T15:33:44.176Z,51.73
2023-03-18T15:36:58.214Z,54.71
2023-03-18T15:40:31.273Z,55.14
2023-03-18T15:43:46.452Z,53.65
2023-03-18T15:46:54.786Z,54.10
2023-03-18T15:50:03.100Z,82.46
2023-03-18T15:53:25.101Z,97.94
2023-03-18T15:56:34.541Z,115.04
2023-03-18T15:59:44.269Z,118.46
2023-03-18T16:02:50.771Z,148.12
2023-03-18T16:06:01.223Z,139.27
2023-03-18T16:09:18.807Z,126.97
2023-03-18T16:12:29.991Z,148.00
2023-03-18T16:15:39.486Z,134.92
2023-03-18T16:18:46.928Z,123.08
2023-03-18T16:21:52.871Z,109.90
2023-03-18T16:24:59.945Z,115.96
2023-03-18T16:28:25.975Z,206.53
2023-03-18T16:31:42.336Z,243.41
2023-03-18T16:34:48.775Z,388.56
2023-03-18T16:37:57.090Z,440.95
2023-03-18T16:41:05.316Z,382.37
2023-03-18T16:44:19.470Z,374.70
2023-03-18T16:47:32.143Z,355.53
2023-03-18T16:50:45.064Z,277.27
2023-03-18T16:53:56.407Z,325.07
2023-03-18T16:57:08.373Z,398.05
2023-03-18T17:00:22.936Z,498.82
2023-03-18T17:03:35.305Z,527.60
2023-03-18T17:06:41.261Z,566.28
2023-03-18T17:09:48.148Z,498.48
2023-03-18T17:13:00.558Z,319.46
2023-03-18T17:16:08.228Z,274.87
2023-03-18T17:19:19.128Z,277.30
2023-03-18T17:22:29.689Z,303.52
2023-03-18T17:25:36.399Z,266.55
2023-03-18T17:28:49.531Z,234.07
2023-03-18T17:31:57.607Z,223.91
2023-03-18T17:35:17.866Z,244.89
2023-03-18T17:38:24.655Z,244.50
2023-03-18T17:41:32.572Z,270.11
2023-03-18T17:44:39.242Z,308.84
2023-03-18T17:47:46.102Z,343.78
2023-03-18T17:50:58.322Z,394.56
2023-03-18T17:54:05.946Z,411.25
2023-03-18T17:57:18.098Z,464.38
2023-03-18T18:00:29.311Z,550.83
2023-03-18T18:03:38.974Z,544.48
2023-03-18T18:06:50.149Z,481.01
2023-03-18T18:09:57.292Z,475.45
2023-03-18T18:13:04.946Z,771.97
2023-03-18T18:16:11.212Z,706.55
2023-03-18T18:19:18.872Z,612.66
2023-03-18T18:22:27.863Z,523.90
2023-03-18T18:25:35.956Z,429.69
2023-03-18T18:28:45.033Z,403.09
2023-03-18T18:31:52.471Z,423.43
2023-03-18T18:34:58.488Z,441.91
2023-03-18T18:38:08.208Z,456.32
2023-03-18T18:41:14.551Z,536.58
2023-03-18T18:44:22.007Z,473.27
2023-03-18T18:47:28.215Z,412.40
2023-03-18T18:50:35.804Z,400.00
2023-03-18T18:53:44.452Z,453.89
2023-03-18T18:56:51.434Z,537.67
2023-03-18T18:59:58.302Z,538.93
2023-03-18T19:03:05.996Z,596.04
2023-03-18T19:06:29.522Z,655.81
2023-03-18T19:09:39.395Z,696.41
2023-03-18T19:12:46.495Z,675.97
2023-03-18T19:15:58.395Z,664.23
2023-03-18T19:19:06.303Z,780.27
2023-03-18T19:22:18.345Z,835.47
2023-03-18T19:25:28.818Z,788.05
2023-03-18T19:28:59.724Z,720.30
2023-03-18T19:32:09.425Z,650.23
2023-03-18T19:35:17.358Z,611.14
2023-03-18T19:38:25.148Z,576.90
2023-03-18T19:41:34.566Z,650.56
2023-03-18T19:44:42.671Z,647.22
2023-03-18T19:47:50.068Z,587.81
2023-03-18T19:50:57.884Z,577.56
2023-03-18T19:54:31.725Z,643.72
2023-03-18T19:57:40.350Z,532.77
2023-03-18T20:00:47.811Z,518.86
2023-03-18T20:03:59.161Z,491.34
2023-03-18T20:07:08.484Z,408.63
2023-03-18T20:10:16.912Z,352.97
2023-03-18T20:13:27.242Z,325.22
2023-03-18T20:16:36.505Z,259.64
2023-03-18T20:19:43.314Z,242.02
2023-03-18T20:22:55.934Z,245.00
2023-03-18T20:26:02.994Z,245.23
2023-03-18T20:29:21.132Z,257.75
2023-03-18T20:32:28.414Z,295.17
2023-03-18T20:35:38.411Z,272.35
2023-03-18T20:38:48.344Z,292.52
2023-03-18T20:41:54.634Z,295.36
2023-03-18T20:45:04.321Z,294.12
2023-03-18T20:48:10.780Z,288.16
2023-03-18T20:51:25.406Z,303.86
2023-03-18T20:54:37.562Z,300.22
2023-03-18T20:57:44.292Z,310.40
2023-03-18T21:00:54.252Z,308.14
2023-03-18T21:04:02.570Z,311.93
2023-03-18T21:07:08.566Z,277.12
2023-03-18T21:10:21.416Z,253.99
2023-03-18T21:13:34.014Z,234.01
2023-03-18T21:16:43.584Z,223.23
2023-03-18T21:19:50.484Z,233.82
2023-03-18T21:22:58.035Z,278.68
2023-03-18T21:26:04.426Z,279.60
2023-03-18T21:29:11.076Z,278.24
2023-03-18T21:32:27.331Z,275.23
2023-03-18T21:35:34.611Z,296.06
2023-03-18T21:38:40.708Z,342.06
2023-03-18T21:41:47.550Z,328.95
2023-03-18T21:44:54.768Z,267.11
2023-03-18T21:48:04.164Z,223.28
2023-03-18T21:51:38.182Z,196.62
2023-03-18T21:54:45.890Z,178.83
2023-03-18T21:57:52.853Z,193.49
2023-03-18T22:01:02.710Z,210.95
2023-03-18T22:04:12.128Z,221.82
2023-03-18T22:07:21.912Z,216.88
2023-03-18T22:10:28.941Z,225.50
2023-03-18T22:13:36.235Z,233.00
2023-03-18T22:16:42.088Z,230.06
2023-03-18T22:19:52.308Z,230.44
2023-03-18T22:22:58.442Z,249.78
2023-03-18T22:26:05.140Z,249.50
2023-03-18T22:29:10.921Z,245.35
2023-03-18T22:32:40.677Z,246.41
2023-03-18T22:35:49.663Z,250.16
2023-03-18T22:38:56.536Z,252.86
2023-03-18T22:42:02.665Z,248.80
2023-03-18T22:45:22.810Z,269.17
2023-03-18T22:48:29.737Z,298.27
2023-03-18T22:51:44.987Z,315.97
2023-03-18T22:54:56.086Z,314.37
2023-03-18T22:58:02.837Z,323.94
2023-03-18T23:01:09.923Z,337.23
2023-03-18T23:04:19.708Z,352.22
2023-03-18T23:07:34.456Z,345.84
2023-03-18T23:10:42.348Z,336.97
2023-03-18T23:13:53.433Z,336.61
2023-03-18T23:17:00.137Z,334.78
2023-03-18T23:20:06.278Z,328.62
2023-03-18T23:23:16.442Z,313.91
2023-03-18T23:26:22.758Z,291.72
2023-03-18T23:29:29.483Z,264.04
2023-03-18T23:32:35.965Z,243.36
2023-03-18T23:35:44.232Z,224.80
2023-03-18T23:38:52.817Z,217.23
2023-03-18T23:41:59.826Z,211.40
2023-03-18T23:45:06.951Z,219.51
2023-03-18T23:48:13.685Z,230.84
2023-03-18T23:51:19.525Z,243.68
2023-03-18T23:54:29.212Z,236.80
2023-03-18T23:57:35.104Z,235.09
